sensor_id;sensor_type;location;lat;lon;timestamp;temperature;humidity
33741;DHT22;20065;48.380;10.892;2022-11-20T00:02:31;5.10;99.90
33741;DHT22;20065;48.380;10.892;2022-11-20T00:05:17;5.10;99.90
33741;DHT22;20065;48.380;10.892;2022-11-20T00:08:05;5.10;99.90
33741;DHT22;20065;48.380;10.892;2022-11-20T00:10:51;5.10;99.90
33741;DHT22;20065;48.380;10.892;2022-11-20T00:13:38;5.20;99.90
33741;DHT22;20065;48.380;10.892;2022-11-20T00:16:36;5.20;99.90
33741;DHT22;20065;48.380;10.892;2022-11-20T00:19:23;5.20;99.90
33741;DHT22;20065;48.380;10.892;2022-11-20T00:22:09;5.20;99.90
33741;DHT22;20065;48.380;10.892;2022-11-20T00:24:59;5.20;99.90
33741;DHT22;20065;48.380;10.892;2022-11-20T00:27:49;5.30;99.90
33741;DHT22;20065;48.380;10.892;2022-11-20T00:30:35;5.30;99.90
33741;DHT22;20065;48.380;10.892;2022-11-20T00:33:22;5.30;99.90
33741;DHT22;20065;48.380;10.892;2022-11-20T00:36:20;5.20;99.90
33741;DHT22;20065;48.380;10.892;2022-11-20T00:39:13;5.30;99.90
33741;DHT22;20065;48.380;10.892;2022-11-20T00:41:59;5.30;99.90
33741;DHT22;20065;48.380;10.892;2022-11-20T00:44:47;5.30;99.90
33741;DHT22;20065;48.380;10.892;2022-11-20T00:47:37;5.30;99.90
33741;DHT22;20065;48.380;10.892;2022-11-20T00:50:33;5.30;99.90
33741;DHT22;20065;48.380;10.892;2022-11-20T00:53:20;5.30;99.90
33741;DHT22;20065;48.380;10.892;2022-11-20T00:56:11;5.20;99.90
33741;DHT22;20065;48.380;10.892;2022-11-20T00:59:00;5.30;99.90
33741;DHT22;20065;48.380;10.892;2022-11-20T01:01:47;5.20;99.90
33741;DHT22;20065;48.380;10.892;2022-11-20T01:04:34;5.20;99.90
33741;DHT22;20065;48.380;10.892;2022-11-20T01:07:21;5.20;99.90
33741;DHT22;20065;48.380;10.892;2022-11-20T01:10:07;5.20;99.90
33741;DHT22;20065;48.380;10.892;2022-11-20T01:12:54;5.20;99.90
33741;DHT22;20065;48.380;10.892;2022-11-20T01:16:05;5.20;99.90
33741;DHT22;20065;48.380;10.892;2022-11-20T01:18:55;5.10;99.90
33741;DHT22;20065;48.380;10.892;2022-11-20T01:21:42;5.20;99.90
33741;DHT22;20065;48.380;10.892;2022-11-20T01:24:29;5.20;99.90
33741;DHT22;20065;48.380;10.892;2022-11-20T01:27:15;5.20;99.90
33741;DHT22;20065;48.380;10.892;2022-11-20T01:30:11;5.20;99.90
33741;DHT22;20065;48.380;10.892;2022-11-20T01:32:57;5.20;99.90
33741;DHT22;20065;48.380;10.892;2022-11-20T01:35:43;5.20;99.90
33741;DHT22;20065;48.380;10.892;2022-11-20T01:38:29;5.20;99.90
33741;DHT22;20065;48.380;10.892;2022-11-20T01:41:15;5.20;99.90
33741;DHT22;20065;48.380;10.892;2022-11-20T01:44:39;5.10;99.90
33741;DHT22;20065;48.380;10.892;2022-11-20T01:50:23;5.10;99.90
33741;DHT22;20065;48.380;10.892;2022-11-20T01:53:14;5.10;99.90
33741;DHT22;20065;48.380;10.892;2022-11-20T01:56:10;5.00;99.90
33741;DHT22;20065;48.380;10.892;2022-11-20T01:58:59;5.00;99.90
33741;DHT22;20065;48.380;10.892;2022-11-20T02:01:47;5.00;99.90
33741;DHT22;20065;48.380;10.892;2022-11-20T02:04:34;5.00;99.90
33741;DHT22;20065;48.380;10.892;2022-11-20T02:07:20;4.90;99.90
33741;DHT22;20065;48.380;10.892;2022-11-20T02:10:07;4.90;99.90
33741;DHT22;20065;48.380;10.892;2022-11-20T02:12:55;4.90;99.90
33741;DHT22;20065;48.380;10.892;2022-11-20T02:16:00;4.90;99.90
33741;DHT22;20065;48.380;10.892;2022-11-20T02:18:47;4.90;99.90
33741;DHT22;20065;48.380;10.892;2022-11-20T02:21:38;4.90;99.90
33741;DHT22;20065;48.380;10.892;2022-11-20T02:24:49;4.80;99.90
33741;DHT22;20065;48.380;10.892;2022-11-20T02:27:36;4.80;99.90
33741;DHT22;20065;48.380;10.892;2022-11-20T02:30:22;4.80;99.90
33741;DHT22;20065;48.380;10.892;2022-11-20T02:33:09;4.70;99.90
33741;DHT22;20065;48.380;10.892;2022-11-20T02:35:55;4.70;99.90
33741;DHT22;20065;48.380;10.892;2022-11-20T02:38:42;4.80;99.90
33741;DHT22;20065;48.380;10.892;2022-11-20T02:41:36;4.80;99.90
33741;DHT22;20065;48.380;10.892;2022-11-20T02:44:23;4.70;99.90
33741;DHT22;20065;48.380;10.892;2022-11-20T02:47:09;4.70;99.90
33741;DHT22;20065;48.380;10.892;2022-11-20T02:49:55;4.70;99.90
33741;DHT22;20065;48.380;10.892;2022-11-20T02:52:42;4.70;99.90
33741;DHT22;20065;48.380;10.892;2022-11-20T02:55:28;4.70;99.90
33741;DHT22;20065;48.380;10.892;2022-11-20T02:58:14;4.70;99.90
33741;DHT22;20065;48.380;10.892;2022-11-20T03:01:00;4.70;99.90
33741;DHT22;20065;48.380;10.892;2022-11-20T03:03:47;4.80;99.90
33741;DHT22;20065;48.380;10.892;2022-11-20T03:06:34;4.80;99.90
33741;DHT22;20065;48.380;10.892;2022-11-20T03:09:20;4.80;99.90
33741;DHT22;20065;48.380;10.892;2022-11-20T03:12:07;4.80;99.90
33741;DHT22;20065;48.380;10.892;2022-11-20T03:14:53;4.90;99.90
33741;DHT22;20065;48.380;10.892;2022-11-20T03:17:39;4.90;99.90
33741;DHT22;20065;48.380;10.892;2022-11-20T03:20:25;4.90;99.90
33741;DHT22;20065;48.380;10.892;2022-11-20T03:23:12;4.90;99.90
33741;DHT22;20065;48.380;10.892;2022-11-20T03:29:00;4.90;99.90
33741;DHT22;20065;48.380;10.892;2022-11-20T03:31:46;4.90;99.90
33741;DHT22;20065;48.380;10.892;2022-11-20T03:34:32;4.90;99.90
33741;DHT22;20065;48.380;10.892;2022-11-20T03:37:19;4.90;99.90
33741;DHT22;20065;48.380;10.892;2022-11-20T03:40:06;5.00;99.90
33741;DHT22;20065;48.380;10.892;2022-11-20T03:42:52;5.10;99.90
33741;DHT22;20065;48.380;10.892;2022-11-20T03:45:38;5.00;99.90
33741;DHT22;20065;48.380;10.892;2022-11-20T03:48:24;5.00;99.90
33741;DHT22;20065;48.380;10.892;2022-11-20T03:51:14;4.90;99.90
33741;DHT22;20065;48.380;10.892;2022-11-20T03:54:07;5.00;99.90
33741;DHT22;20065;48.380;10.892;2022-11-20T03:56:53;5.00;99.90
33741;DHT22;20065;48.380;10.892;2022-11-20T03:59:39;5.00;99.90
33741;DHT22;20065;48.380;10.892;2022-11-20T04:02:26;5.10;99.90
33741;DHT22;20065;48.380;10.892;2022-11-20T04:05:12;5.00;99.90
33741;DHT22;20065;48.380;10.892;2022-11-20T04:07:58;5.10;99.90
33741;DHT22;20065;48.380;10.892;2022-11-20T04:10:44;5.00;99.90
33741;DHT22;20065;48.380;10.892;2022-11-20T04:13:30;5.10;99.90
33741;DHT22;20065;48.380;10.892;2022-11-20T04:16:17;5.10;99.90
33741;DHT22;20065;48.380;10.892;2022-11-20T04:19:06;5.20;99.90
33741;DHT22;20065;48.380;10.892;2022-11-20T04:21:52;5.10;99.90
33741;DHT22;20065;48.380;10.892;2022-11-20T04:24:38;5.00;99.90
33741;DHT22;20065;48.380;10.892;2022-11-20T04:27:24;5.10;99.90
33741;DHT22;20065;48.380;10.892;2022-11-20T04:30:11;5.10;99.90
33741;DHT22;20065;48.380;10.892;2022-11-20T04:32:57;5.10;99.90
33741;DHT22;20065;48.380;10.892;2022-11-20T04:35:45;5.10;99.90
33741;DHT22;20065;48.380;10.892;2022-11-20T04:38:33;5.10;99.90
33741;DHT22;20065;48.380;10.892;2022-11-20T04:41:22;5.10;99.90
33741;DHT22;20065;48.380;10.892;2022-11-20T04:44:08;5.10;99.90
33741;DHT22;20065;48.380;10.892;2022-11-20T04:46:54;5.10;99.90
33741;DHT22;20065;48.380;10.892;2022-11-20T04:49:41;5.10;99.90
33741;DHT22;20065;48.380;10.892;2022-11-20T04:52:27;5.10;99.90
33741;DHT22;20065;48.380;10.892;2022-11-20T04:55:13;5.10;99.90
33741;DHT22;20065;48.380;10.892;2022-11-20T04:57:59;5.00;99.90
33741;DHT22;20065;48.380;10.892;2022-11-20T05:00:45;5.00;99.90
33741;DHT22;20065;48.380;10.892;2022-11-20T05:03:31;4.90;99.90
33741;DHT22;20065;48.380;10.892;2022-11-20T05:06:21;4.90;99.90
33741;DHT22;20065;48.380;10.892;2022-11-20T05:09:07;4.90;99.90
33741;DHT22;20065;48.380;10.892;2022-11-20T05:11:54;4.90;99.90
33741;DHT22;20065;48.380;10.892;2022-11-20T05:14:40;5.00;99.90
33741;DHT22;20065;48.380;10.892;2022-11-20T05:17:26;5.00;99.90
33741;DHT22;20065;48.380;10.892;2022-11-20T05:20:12;4.90;99.90
33741;DHT22;20065;48.380;10.892;2022-11-20T05:22:58;5.00;99.90
33741;DHT22;20065;48.380;10.892;2022-11-20T05:25:44;4.90;99.90
33741;DHT22;20065;48.380;10.892;2022-11-20T05:28:31;4.80;99.90
33741;DHT22;20065;48.380;10.892;2022-11-20T05:31:23;4.80;99.90
33741;DHT22;20065;48.380;10.892;2022-11-20T05:34:09;4.90;99.90
33741;DHT22;20065;48.380;10.892;2022-11-20T05:36:56;4.90;99.90
33741;DHT22;20065;48.380;10.892;2022-11-20T05:39:42;5.00;99.90
33741;DHT22;20065;48.380;10.892;2022-11-20T05:42:30;5.00;99.90
33741;DHT22;20065;48.380;10.892;2022-11-20T05:45:17;5.00;99.90
33741;DHT22;20065;48.380;10.892;2022-11-20T05:48:03;5.00;99.90
33741;DHT22;20065;48.380;10.892;2022-11-20T05:50:49;5.00;99.90
33741;DHT22;20065;48.380;10.892;2022-11-20T05:53:36;5.00;99.90
33741;DHT22;20065;48.380;10.892;2022-11-20T05:56:22;5.00;99.90
33741;DHT22;20065;48.380;10.892;2022-11-20T05:59:08;4.90;99.90
33741;DHT22;20065;48.380;10.892;2022-11-20T06:01:54;4.90;99.90
33741;DHT22;20065;48.380;10.892;2022-11-20T06:04:41;5.10;99.90
33741;DHT22;20065;48.380;10.892;2022-11-20T06:07:27;5.10;99.90
33741;DHT22;20065;48.380;10.892;2022-11-20T06:10:13;5.20;99.90
33741;DHT22;20065;48.380;10.892;2022-11-20T06:12:59;5.20;99.90
33741;DHT22;20065;48.380;10.892;2022-11-20T06:15:53;5.10;99.90
33741;DHT22;20065;48.380;10.892;2022-11-20T06:18:39;5.30;99.90
33741;DHT22;20065;48.380;10.892;2022-11-20T06:21:25;5.20;99.90
33741;DHT22;20065;48.380;10.892;2022-11-20T06:24:12;5.30;99.90
33741;DHT22;20065;48.380;10.892;2022-11-20T06:26:58;5.30;99.90
33741;DHT22;20065;48.380;10.892;2022-11-20T06:29:44;5.20;99.90
33741;DHT22;20065;48.380;10.892;2022-11-20T06:32:30;5.20;99.90
33741;DHT22;20065;48.380;10.892;2022-11-20T06:35:16;5.10;99.90
33741;DHT22;20065;48.380;10.892;2022-11-20T06:38:02;5.00;99.90
33741;DHT22;20065;48.380;10.892;2022-11-20T06:40:49;4.90;99.90
33741;DHT22;20065;48.380;10.892;2022-11-20T06:43:35;4.90;99.90
33741;DHT22;20065;48.380;10.892;2022-11-20T06:46:21;4.90;99.90
33741;DHT22;20065;48.380;10.892;2022-11-20T06:49:08;5.00;99.90
33741;DHT22;20065;48.380;10.892;2022-11-20T06:51:54;5.00;99.90
33741;DHT22;20065;48.380;10.892;2022-11-20T06:54:40;5.00;99.90
33741;DHT22;20065;48.380;10.892;2022-11-20T06:57:26;5.00;99.90
33741;DHT22;20065;48.380;10.892;2022-11-20T07:00:13;5.10;99.90
33741;DHT22;20065;48.380;10.892;2022-11-20T07:03:03;5.10;99.90
33741;DHT22;20065;48.380;10.892;2022-11-20T07:05:49;5.20;99.90
33741;DHT22;20065;48.380;10.892;2022-11-20T07:08:36;5.30;99.90
33741;DHT22;20065;48.380;10.892;2022-11-20T07:11:23;5.30;99.90
33741;DHT22;20065;48.380;10.892;2022-11-20T07:14:09;5.30;99.90
33741;DHT22;20065;48.380;10.892;2022-11-20T07:16:55;5.40;99.90
33741;DHT22;20065;48.380;10.892;2022-11-20T07:19:41;5.40;99.90
33741;DHT22;20065;48.380;10.892;2022-11-20T07:22:28;5.30;99.90
33741;DHT22;20065;48.380;10.892;2022-11-20T07:25:14;5.40;99.90
33741;DHT22;20065;48.380;10.892;2022-11-20T07:28:01;5.40;99.90
33741;DHT22;20065;48.380;10.892;2022-11-20T07:30:51;5.40;99.90
33741;DHT22;20065;48.380;10.892;2022-11-20T07:33:38;5.40;99.90
33741;DHT22;20065;48.380;10.892;2022-11-20T07:36:24;5.50;99.90
33741;DHT22;20065;48.380;10.892;2022-11-20T07:39:10;5.50;99.90
33741;DHT22;20065;48.380;10.892;2022-11-20T07:41:56;5.60;99.90
33741;DHT22;20065;48.380;10.892;2022-11-20T07:44:42;5.50;99.90
33741;DHT22;20065;48.380;10.892;2022-11-20T07:47:28;5.60;99.90
33741;DHT22;20065;48.380;10.892;2022-11-20T07:50:15;5.70;99.90
33741;DHT22;20065;48.380;10.892;2022-11-20T07:53:05;5.70;99.90
33741;DHT22;20065;48.380;10.892;2022-11-20T07:55:51;5.80;99.90
33741;DHT22;20065;48.380;10.892;2022-11-20T07:58:40;5.80;99.90
33741;DHT22;20065;48.380;10.892;2022-11-20T08:01:26;5.80;99.90
33741;DHT22;20065;48.380;10.892;2022-11-20T08:04:12;5.80;99.90
33741;DHT22;20065;48.380;10.892;2022-11-20T08:06:58;5.90;99.90
33741;DHT22;20065;48.380;10.892;2022-11-20T08:09:44;5.90;99.90
33741;DHT22;20065;48.380;10.892;2022-11-20T08:12:31;5.80;99.90
33741;DHT22;20065;48.380;10.892;2022-11-20T08:15:36;6.00;99.90
33741;DHT22;20065;48.380;10.892;2022-11-20T08:18:22;6.00;99.90
33741;DHT22;20065;48.380;10.892;2022-11-20T08:21:09;6.10;99.90
33741;DHT22;20065;48.380;10.892;2022-11-20T08:23:55;6.20;99.90
33741;DHT22;20065;48.380;10.892;2022-11-20T08:26:41;6.30;99.90
33741;DHT22;20065;48.380;10.892;2022-11-20T08:29:27;6.20;99.90
33741;DHT22;20065;48.380;10.892;2022-11-20T08:32:13;6.20;99.90
33741;DHT22;20065;48.380;10.892;2022-11-20T08:35:00;6.20;99.90
33741;DHT22;20065;48.380;10.892;2022-11-20T08:37:47;6.10;99.90
33741;DHT22;20065;48.380;10.892;2022-11-20T08:40:34;6.10;99.90
33741;DHT22;20065;48.380;10.892;2022-11-20T08:43:20;6.10;99.90
33741;DHT22;20065;48.380;10.892;2022-11-20T08:46:06;6.10;99.90
33741;DHT22;20065;48.380;10.892;2022-11-20T08:48:52;6.10;99.90
33741;DHT22;20065;48.380;10.892;2022-11-20T08:51:39;6.20;99.90
33741;DHT22;20065;48.380;10.892;2022-11-20T08:54:25;6.20;99.90
33741;DHT22;20065;48.380;10.892;2022-11-20T08:57:12;6.20;99.90
33741;DHT22;20065;48.380;10.892;2022-11-20T08:59:58;6.30;99.90
33741;DHT22;20065;48.380;10.892;2022-11-20T09:02:44;6.20;99.90
33741;DHT22;20065;48.380;10.892;2022-11-20T09:05:31;6.30;99.90
33741;DHT22;20065;48.380;10.892;2022-11-20T09:08:17;6.30;99.90
33741;DHT22;20065;48.380;10.892;2022-11-20T09:11:03;6.30;99.90
33741;DHT22;20065;48.380;10.892;2022-11-20T09:13:50;6.30;99.90
33741;DHT22;20065;48.380;10.892;2022-11-20T09:16:36;6.50;99.90
33741;DHT22;20065;48.380;10.892;2022-11-20T09:19:24;6.50;99.90
33741;DHT22;20065;48.380;10.892;2022-11-20T09:22:10;6.40;99.90
33741;DHT22;20065;48.380;10.892;2022-11-20T09:24:56;6.50;99.90
33741;DHT22;20065;48.380;10.892;2022-11-20T09:27:43;6.50;99.90
33741;DHT22;20065;48.380;10.892;2022-11-20T09:30:31;6.50;99.90
33741;DHT22;20065;48.380;10.892;2022-11-20T09:33:17;6.50;99.90
33741;DHT22;20065;48.380;10.892;2022-11-20T09:36:04;6.60;99.90
33741;DHT22;20065;48.380;10.892;2022-11-20T09:38:50;6.80;99.90
33741;DHT22;20065;48.380;10.892;2022-11-20T09:51:35;7.30;99.90
33741;DHT22;20065;48.380;10.892;2022-11-20T09:54:32;7.20;99.90
33741;DHT22;20065;48.380;10.892;2022-11-20T09:57:23;7.10;99.90
33741;DHT22;20065;48.380;10.892;2022-11-20T10:00:14;7.20;99.90
33741;DHT22;20065;48.380;10.892;2022-11-20T10:03:32;7.20;99.90
33741;DHT22;20065;48.380;10.892;2022-11-20T10:09:27;7.10;99.90
33741;DHT22;20065;48.380;10.892;2022-11-20T10:12:53;7.00;99.90
33741;DHT22;20065;48.380;10.892;2022-11-20T10:16:46;6.80;99.90
33741;DHT22;20065;48.380;10.892;2022-11-20T10:19:56;6.80;99.90
33741;DHT22;20065;48.380;10.892;2022-11-20T10:26:17;6.80;99.90
33741;DHT22;20065;48.380;10.892;2022-11-20T10:29:18;6.90;99.90
33741;DHT22;20065;48.380;10.892;2022-11-20T10:32:18;6.90;99.90
33741;DHT22;20065;48.380;10.892;2022-11-20T10:38:02;7.00;99.90
33741;DHT22;20065;48.380;10.892;2022-11-20T10:40:54;7.10;99.90
33741;DHT22;20065;48.380;10.892;2022-11-20T10:44:09;7.10;99.90
33741;DHT22;20065;48.380;10.892;2022-11-20T10:46:56;7.10;99.90
33741;DHT22;20065;48.380;10.892;2022-11-20T10:49:47;7.20;99.90
33741;DHT22;20065;48.380;10.892;2022-11-20T10:52:48;7.10;99.90
33741;DHT22;20065;48.380;10.892;2022-11-20T10:55:53;6.90;99.90
33741;DHT22;20065;48.380;10.892;2022-11-20T10:59:02;6.90;99.90
33741;DHT22;20065;48.380;10.892;2022-11-20T11:01:48;6.90;99.90
33741;DHT22;20065;48.380;10.892;2022-11-20T11:04:43;6.90;99.90
33741;DHT22;20065;48.380;10.892;2022-11-20T11:07:39;6.90;99.90
33741;DHT22;20065;48.380;10.892;2022-11-20T11:10:39;7.00;99.90
33741;DHT22;20065;48.380;10.892;2022-11-20T11:13:29;6.90;99.90
33741;DHT22;20065;48.380;10.892;2022-11-20T11:16:23;6.90;99.90
33741;DHT22;20065;48.380;10.892;2022-11-20T11:19:12;6.70;99.90
33741;DHT22;20065;48.380;10.892;2022-11-20T11:21:59;6.50;99.90
33741;DHT22;20065;48.380;10.892;2022-11-20T11:24:52;6.40;99.90
33741;DHT22;20065;48.380;10.892;2022-11-20T11:27:51;6.50;99.90
33741;DHT22;20065;48.380;10.892;2022-11-20T11:30:43;6.70;99.90
33741;DHT22;20065;48.380;10.892;2022-11-20T11:33:31;6.80;99.90
33741;DHT22;20065;48.380;10.892;2022-11-20T11:36:22;6.80;99.90
33741;DHT22;20065;48.380;10.892;2022-11-20T11:39:18;6.80;99.90
33741;DHT22;20065;48.380;10.892;2022-11-20T11:42:06;6.90;99.90
33741;DHT22;20065;48.380;10.892;2022-11-20T11:44:56;7.00;99.90
33741;DHT22;20065;48.380;10.892;2022-11-20T11:47:56;7.00;99.90
33741;DHT22;20065;48.380;10.892;2022-11-20T11:50:49;6.90;99.90
33741;DHT22;20065;48.380;10.892;2022-11-20T11:53:40;6.90;99.90
33741;DHT22;20065;48.380;10.892;2022-11-20T11:56:28;6.90;99.90
33741;DHT22;20065;48.380;10.892;2022-11-20T11:59:29;6.80;99.90
33741;DHT22;20065;48.380;10.892;2022-11-20T12:02:38;6.70;99.90
33741;DHT22;20065;48.380;10.892;2022-11-20T12:05:40;6.60;99.90
33741;DHT22;20065;48.380;10.892;2022-11-20T12:14:43;6.50;99.90
33741;DHT22;20065;48.380;10.892;2022-11-20T12:17:31;6.50;99.90
33741;DHT22;20065;48.380;10.892;2022-11-20T12:20:17;6.40;99.90
33741;DHT22;20065;48.380;10.892;2022-11-20T12:36:53;6.50;99.90
33741;DHT22;20065;48.380;10.892;2022-11-20T12:39:43;6.60;99.90
33741;DHT22;20065;48.380;10.892;2022-11-20T12:53:08;6.50;99.90
33741;DHT22;20065;48.380;10.892;2022-11-20T12:56:26;6.50;99.90
33741;DHT22;20065;48.380;10.892;2022-11-20T13:06:05;6.50;99.90
33741;DHT22;20065;48.380;10.892;2022-11-20T13:08:54;6.50;99.90
33741;DHT22;20065;48.380;10.892;2022-11-20T13:15:15;6.60;99.90
33741;DHT22;20065;48.380;10.892;2022-11-20T13:18:06;6.60;99.90
33741;DHT22;20065;48.380;10.892;2022-11-20T13:20:54;6.60;99.90
33741;DHT22;20065;48.380;10.892;2022-11-20T13:23:40;6.60;99.90
33741;DHT22;20065;48.380;10.892;2022-11-20T13:26:27;6.60;99.90
33741;DHT22;20065;48.380;10.892;2022-11-20T13:29:20;6.60;99.90
33741;DHT22;20065;48.380;10.892;2022-11-20T13:32:18;6.50;99.90
33741;DHT22;20065;48.380;10.892;2022-11-20T13:35:05;6.50;99.90
33741;DHT22;20065;48.380;10.892;2022-11-20T13:38:02;6.50;99.90
33741;DHT22;20065;48.380;10.892;2022-11-20T13:40:59;6.50;99.90
33741;DHT22;20065;48.380;10.892;2022-11-20T13:44:13;6.50;99.90
33741;DHT22;20065;48.380;10.892;2022-11-20T13:47:00;6.50;99.90
33741;DHT22;20065;48.380;10.892;2022-11-20T13:49:48;6.60;99.90
33741;DHT22;20065;48.380;10.892;2022-11-20T13:56:08;6.60;99.90
33741;DHT22;20065;48.380;10.892;2022-11-20T14:02:01;6.40;99.90
33741;DHT22;20065;48.380;10.892;2022-11-20T14:05:00;6.20;99.90
33741;DHT22;20065;48.380;10.892;2022-11-20T14:07:49;6.30;99.90
33741;DHT22;20065;48.380;10.892;2022-11-20T14:10:36;6.30;99.90
33741;DHT22;20065;48.380;10.892;2022-11-20T14:13:25;6.40;99.90
33741;DHT22;20065;48.380;10.892;2022-11-20T14:16:11;6.40;99.90
33741;DHT22;20065;48.380;10.892;2022-11-20T14:22:24;6.50;99.90
33741;DHT22;20065;48.380;10.892;2022-11-20T14:28:04;6.50;99.90
33741;DHT22;20065;48.380;10.892;2022-11-20T14:30:51;6.40;99.90
33741;DHT22;20065;48.380;10.892;2022-11-20T14:33:37;6.40;99.90
33741;DHT22;20065;48.380;10.892;2022-11-20T14:36:25;6.40;99.90
33741;DHT22;20065;48.380;10.892;2022-11-20T14:39:19;6.40;99.90
33741;DHT22;20065;48.380;10.892;2022-11-20T14:42:17;6.40;99.90
33741;DHT22;20065;48.380;10.892;2022-11-20T14:45:05;6.40;99.90
33741;DHT22;20065;48.380;10.892;2022-11-20T14:47:55;6.40;99.90
33741;DHT22;20065;48.380;10.892;2022-11-20T14:50:41;6.50;99.90
33741;DHT22;20065;48.380;10.892;2022-11-20T14:53:28;6.50;99.90
33741;DHT22;20065;48.380;10.892;2022-11-20T14:56:22;6.50;99.90
33741;DHT22;20065;48.380;10.892;2022-11-20T14:59:09;6.60;99.90
33741;DHT22;20065;48.380;10.892;2022-11-20T15:02:01;6.60;99.90
33741;DHT22;20065;48.380;10.892;2022-11-20T15:04:51;6.60;99.90
33741;DHT22;20065;48.380;10.892;2022-11-20T15:07:43;6.60;99.90
33741;DHT22;20065;48.380;10.892;2022-11-20T15:10:31;6.50;99.90
33741;DHT22;20065;48.380;10.892;2022-11-20T15:16:18;6.40;99.90
33741;DHT22;20065;48.380;10.892;2022-11-20T15:19:21;6.50;99.90
33741;DHT22;20065;48.380;10.892;2022-11-20T15:22:11;6.50;99.90
33741;DHT22;20065;48.380;10.892;2022-11-20T15:25:04;6.50;99.90
33741;DHT22;20065;48.380;10.892;2022-11-20T15:27:56;6.40;99.90
33741;DHT22;20065;48.380;10.892;2022-11-20T15:30:43;6.30;99.90
33741;DHT22;20065;48.380;10.892;2022-11-20T15:33:33;6.40;99.90
33741;DHT22;20065;48.380;10.892;2022-11-20T15:36:20;6.40;99.90
33741;DHT22;20065;48.380;10.892;2022-11-20T15:39:06;6.30;99.90
33741;DHT22;20065;48.380;10.892;2022-11-20T15:41:56;6.30;99.90
33741;DHT22;20065;48.380;10.892;2022-11-20T15:44:42;6.30;99.90
33741;DHT22;20065;48.380;10.892;2022-11-20T15:47:32;6.20;99.90
33741;DHT22;20065;48.380;10.892;2022-11-20T15:50:19;6.10;99.90
33741;DHT22;20065;48.380;10.892;2022-11-20T15:53:08;6.10;99.90
33741;DHT22;20065;48.380;10.892;2022-11-20T15:55:55;6.10;99.90
33741;DHT22;20065;48.380;10.892;2022-11-20T15:58:41;6.10;99.90
33741;DHT22;20065;48.380;10.892;2022-11-20T16:01:27;6.10;99.90
33741;DHT22;20065;48.380;10.892;2022-11-20T16:04:15;6.00;99.90
33741;DHT22;20065;48.380;10.892;2022-11-20T16:07:02;6.00;99.90
33741;DHT22;20065;48.380;10.892;2022-11-20T16:09:48;6.00;99.90
33741;DHT22;20065;48.380;10.892;2022-11-20T16:12:34;6.00;99.90
33741;DHT22;20065;48.380;10.892;2022-11-20T16:15:39;6.00;99.90
33741;DHT22;20065;48.380;10.892;2022-11-20T16:18:31;6.00;99.90
33741;DHT22;20065;48.380;10.892;2022-11-20T16:21:17;6.00;99.90
33741;DHT22;20065;48.380;10.892;2022-11-20T16:24:05;6.00;99.90
33741;DHT22;20065;48.380;10.892;2022-11-20T16:26:53;5.90;99.90
33741;DHT22;20065;48.380;10.892;2022-11-20T16:29:39;5.90;99.90
33741;DHT22;20065;48.380;10.892;2022-11-20T16:32:31;5.90;99.90
33741;DHT22;20065;48.380;10.892;2022-11-20T16:35:17;5.80;99.90
33741;DHT22;20065;48.380;10.892;2022-11-20T16:38:03;5.80;99.90
33741;DHT22;20065;48.380;10.892;2022-11-20T16:40:49;5.80;99.90
33741;DHT22;20065;48.380;10.892;2022-11-20T16:43:35;5.90;99.90
33741;DHT22;20065;48.380;10.892;2022-11-20T16:46:23;6.00;99.90
33741;DHT22;20065;48.380;10.892;2022-11-20T16:49:13;5.90;99.90
33741;DHT22;20065;48.380;10.892;2022-11-20T16:51:59;5.80;99.90
33741;DHT22;20065;48.380;10.892;2022-11-20T16:54:46;5.70;99.90
33741;DHT22;20065;48.380;10.892;2022-11-20T16:57:33;5.60;99.90
33741;DHT22;20065;48.380;10.892;2022-11-20T17:00:20;5.60;99.90
33741;DHT22;20065;48.380;10.892;2022-11-20T17:03:06;5.60;99.90
33741;DHT22;20065;48.380;10.892;2022-11-20T17:05:52;5.60;99.90
33741;DHT22;20065;48.380;10.892;2022-11-20T17:08:38;5.70;99.90
33741;DHT22;20065;48.380;10.892;2022-11-20T17:11:26;5.80;99.90
33741;DHT22;20065;48.380;10.892;2022-11-20T17:14:12;5.90;99.90
33741;DHT22;20065;48.380;10.892;2022-11-20T17:16:58;6.10;99.90
33741;DHT22;20065;48.380;10.892;2022-11-20T17:19:45;6.10;99.90
33741;DHT22;20065;48.380;10.892;2022-11-20T17:22:31;6.10;99.90
33741;DHT22;20065;48.380;10.892;2022-11-20T17:25:18;6.00;99.90
33741;DHT22;20065;48.380;10.892;2022-11-20T17:28:04;6.00;99.90
33741;DHT22;20065;48.380;10.892;2022-11-20T17:30:51;6.00;99.90
33741;DHT22;20065;48.380;10.892;2022-11-20T17:33:39;6.10;99.90
33741;DHT22;20065;48.380;10.892;2022-11-20T17:36:26;6.10;99.90
33741;DHT22;20065;48.380;10.892;2022-11-20T17:39:15;6.00;99.90
33741;DHT22;20065;48.380;10.892;2022-11-20T17:42:01;6.00;99.90
33741;DHT22;20065;48.380;10.892;2022-11-20T17:45:06;6.10;99.90
33741;DHT22;20065;48.380;10.892;2022-11-20T17:47:52;6.10;99.90
33741;DHT22;20065;48.380;10.892;2022-11-20T17:50:39;6.10;99.90
33741;DHT22;20065;48.380;10.892;2022-11-20T17:53:26;6.00;99.90
33741;DHT22;20065;48.380;10.892;2022-11-20T17:56:15;6.00;99.90
33741;DHT22;20065;48.380;10.892;2022-11-20T17:59:21;5.90;99.90
33741;DHT22;20065;48.380;10.892;2022-11-20T18:02:08;5.80;99.90
33741;DHT22;20065;48.380;10.892;2022-11-20T18:04:55;5.70;99.90
33741;DHT22;20065;48.380;10.892;2022-11-20T18:07:42;5.70;99.90
33741;DHT22;20065;48.380;10.892;2022-11-20T18:10:29;5.70;99.90
33741;DHT22;20065;48.380;10.892;2022-11-20T18:13:15;5.60;99.90
33741;DHT22;20065;48.380;10.892;2022-11-20T18:16:06;5.60;99.90
33741;DHT22;20065;48.380;10.892;2022-11-20T18:18:54;5.70;99.90
33741;DHT22;20065;48.380;10.892;2022-11-20T18:21:40;5.80;99.90
33741;DHT22;20065;48.380;10.892;2022-11-20T18:24:39;5.80;99.90
33741;DHT22;20065;48.380;10.892;2022-11-20T18:27:29;5.70;99.90
33741;DHT22;20065;48.380;10.892;2022-11-20T18:30:16;5.70;99.90
33741;DHT22;20065;48.380;10.892;2022-11-20T18:33:05;5.40;99.90
33741;DHT22;20065;48.380;10.892;2022-11-20T18:35:51;5.40;99.90
33741;DHT22;20065;48.380;10.892;2022-11-20T18:38:42;5.30;99.90
33741;DHT22;20065;48.380;10.892;2022-11-20T18:41:31;5.30;99.90
33741;DHT22;20065;48.380;10.892;2022-11-20T18:44:36;5.10;99.90
33741;DHT22;20065;48.380;10.892;2022-11-20T18:47:41;5.10;99.90
33741;DHT22;20065;48.380;10.892;2022-11-20T18:50:29;5.00;99.90
33741;DHT22;20065;48.380;10.892;2022-11-20T18:53:15;5.00;99.90
33741;DHT22;20065;48.380;10.892;2022-11-20T18:56:05;5.00;99.90
33741;DHT22;20065;48.380;10.892;2022-11-20T18:58:54;5.00;99.90
33741;DHT22;20065;48.380;10.892;2022-11-20T19:01:43;5.00;99.90
33741;DHT22;20065;48.380;10.892;2022-11-20T19:04:32;4.90;99.90
33741;DHT22;20065;48.380;10.892;2022-11-20T19:07:19;4.90;99.90
33741;DHT22;20065;48.380;10.892;2022-11-20T19:10:06;4.90;99.90
33741;DHT22;20065;48.380;10.892;2022-11-20T19:12:52;4.90;99.90